aviador You're here:

KCBE Decoded Metar

CUMBERLAND REG in MD, USA
Report Time2017-04-29 17:22:00
UTC Time2017-04-29 17:45:41
Flight Rules vfr VFR
Wind150° at 06 kt
W.Decomp.*RWY 11: 3.9 kt HW 4.6 kt RCW
RWY 23: 2.1 kt HW 5.6 kt LCW
W.Rank150° ranks 14
Current wind is above 150° avg. (4.7)
Visibility9999 m
Phenomena:N/A
Clouds:N/A
Expected CloudBase > 3,200 ft AGL from Temp-Dew spread
CeilingNone
Temp26°C (ISA +13)
Dew Point18°C (61% RH)
QNH1020 hPa
Density Alt2,264 ft
Elevation774 ft
Report Wrong Elevation
Raw Report
KCBE 291722Z AUTO 15006KT 10SM CLR 26/18 A3012=

Extra information for KCBE:More info

Metar Taf Metar & Taf Last 4 Metars F.Rules Stats Wind Profile Meteogram Temp Stats Airport Information Weather charts Add Link Nearby VenuesMetar ALERT Operation Metar Decoded Social comments

AIRNAV info for KCBE